sensor_id;sensor_type;location;lat;lon;timestamp;temperature;humidity
9544;DHT22;30418;51.45933468;7.33152330;2022-12-18T00:00:16;0.00;58.80
9544;DHT22;30418;51.45933468;7.33152330;2022-12-18T00:02:45;0.00;58.80
9544;DHT22;30418;51.45933468;7.33152330;2022-12-18T00:05:14;0.00;58.80
9544;DHT22;30418;51.45933468;7.33152330;2022-12-18T00:07:44;0.00;58.80
9544;DHT22;30418;51.45933468;7.33152330;2022-12-18T00:10:13;0.00;58.80
9544;DHT22;30418;51.45933468;7.33152330;2022-12-18T00:12:41;0.00;58.80
9544;DHT22;30418;51.45933468;7.33152330;2022-12-18T00:15:10;0.00;58.80
9544;DHT22;30418;51.45933468;7.33152330;2022-12-18T00:17:38;0.00;58.80
9544;DHT22;30418;51.45933468;7.33152330;2022-12-18T00:20:08;0.00;58.80
9544;DHT22;30418;51.45933468;7.33152330;2022-12-18T00:22:37;0.00;58.80
9544;DHT22;30418;51.45933468;7.33152330;2022-12-18T00:25:08;0.00;58.80
9544;DHT22;30418;51.45933468;7.33152330;2022-12-18T00:27:36;0.00;58.70
9544;DHT22;30418;51.45933468;7.33152330;2022-12-18T00:30:05;0.00;58.70
9544;DHT22;30418;51.45933468;7.33152330;2022-12-18T00:32:35;0.00;58.70
9544;DHT22;30418;51.45933468;7.33152330;2022-12-18T00:35:05;0.00;58.70
9544;DHT22;30418;51.45933468;7.33152330;2022-12-18T00:37:34;0.00;58.70
9544;DHT22;30418;51.45933468;7.33152330;2022-12-18T00:40:04;0.00;58.70
9544;DHT22;30418;51.45933468;7.33152330;2022-12-18T00:42:36;-0.10;58.70
9544;DHT22;30418;51.45933468;7.33152330;2022-12-18T00:45:26;-0.10;58.70
9544;DHT22;30418;51.45933468;7.33152330;2022-12-18T00:47:56;-0.10;58.60
9544;DHT22;30418;51.45933468;7.33152330;2022-12-18T00:50:25;-0.10;58.60
9544;DHT22;30418;51.45933468;7.33152330;2022-12-18T00:52:54;-0.10;58.70
9544;DHT22;30418;51.45933468;7.33152330;2022-12-18T00:55:23;-0.10;58.70
9544;DHT22;30418;51.45933468;7.33152330;2022-12-18T00:57:52;-0.10;58.70
9544;DHT22;30418;51.45933468;7.33152330;2022-12-18T01:00:21;-0.10;58.70
9544;DHT22;30418;51.45933468;7.33152330;2022-12-18T01:02:50;-0.10;58.70
9544;DHT22;30418;51.45933468;7.33152330;2022-12-18T01:05:19;-0.10;58.70
9544;DHT22;30418;51.45933468;7.33152330;2022-12-18T01:07:48;-0.10;58.70
9544;DHT22;30418;51.45933468;7.33152330;2022-12-18T01:10:18;-0.10;58.70
9544;DHT22;30418;51.45933468;7.33152330;2022-12-18T01:12:48;-0.10;58.80
9544;DHT22;30418;51.45933468;7.33152330;2022-12-18T01:15:18;-0.10;58.80
9544;DHT22;30418;51.45933468;7.33152330;2022-12-18T01:17:46;-0.10;58.70
9544;DHT22;30418;51.45933468;7.33152330;2022-12-18T01:20:15;-0.10;58.70
9544;DHT22;30418;51.45933468;7.33152330;2022-12-18T01:22:45;-0.10;58.70
9544;DHT22;30418;51.45933468;7.33152330;2022-12-18T01:25:13;-0.10;58.70
9544;DHT22;30418;51.45933468;7.33152330;2022-12-18T01:27:43;-0.10;58.60
9544;DHT22;30418;51.45933468;7.33152330;2022-12-18T01:30:13;-0.10;58.40
9544;DHT22;30418;51.45933468;7.33152330;2022-12-18T01:32:41;-0.10;58.30
9544;DHT22;30418;51.45933468;7.33152330;2022-12-18T01:35:10;-0.20;58.10
9544;DHT22;30418;51.45933468;7.33152330;2022-12-18T01:37:38;-0.20;58.10
9544;DHT22;30418;51.45933468;7.33152330;2022-12-18T01:40:08;-0.20;58.20
9544;DHT22;30418;51.45933468;7.33152330;2022-12-18T01:42:37;-0.30;58.10
9544;DHT22;30418;51.45933468;7.33152330;2022-12-18T01:45:24;-0.30;58.10
9544;DHT22;30418;51.45933468;7.33152330;2022-12-18T01:47:57;-0.40;57.90
9544;DHT22;30418;51.45933468;7.33152330;2022-12-18T01:50:30;-0.30;58.10
9544;DHT22;30418;51.45933468;7.33152330;2022-12-18T01:53:03;-0.40;58.20
9544;DHT22;30418;51.45933468;7.33152330;2022-12-18T01:55:37;-0.40;58.20
9544;DHT22;30418;51.45933468;7.33152330;2022-12-18T01:58:10;-0.40;58.30
9544;DHT22;30418;51.45933468;7.33152330;2022-12-18T02:00:39;-0.50;58.30
9544;DHT22;30418;51.45933468;7.33152330;2022-12-18T02:03:08;-0.40;58.40
9544;DHT22;30418;51.45933468;7.33152330;2022-12-18T02:05:44;-0.40;59.10
9544;DHT22;30418;51.45933468;7.33152330;2022-12-18T02:08:21;-0.40;59.20
9544;DHT22;30418;51.45933468;7.33152330;2022-12-18T02:10:57;-0.40;58.60
9544;DHT22;30418;51.45933468;7.33152330;2022-12-18T02:13:41;-0.40;58.60
9544;DHT22;30418;51.45933468;7.33152330;2022-12-18T02:16:20;-0.40;58.70
9544;DHT22;30418;51.45933468;7.33152330;2022-12-18T02:18:55;-0.40;58.70
9544;DHT22;30418;51.45933468;7.33152330;2022-12-18T02:21:31;-0.30;58.90
9544;DHT22;30418;51.45933468;7.33152330;2022-12-18T02:24:17;-0.30;58.90
9544;DHT22;30418;51.45933468;7.33152330;2022-12-18T02:26:53;-0.30;58.90
9544;DHT22;30418;51.45933468;7.33152330;2022-12-18T02:29:28;-0.30;58.90
9544;DHT22;30418;51.45933468;7.33152330;2022-12-18T02:32:02;-0.30;58.90
9544;DHT22;30418;51.45933468;7.33152330;2022-12-18T02:34:34;-0.30;58.90
9544;DHT22;30418;51.45933468;7.33152330;2022-12-18T02:37:12;-0.20;59.00
9544;DHT22;30418;51.45933468;7.33152330;2022-12-18T02:39:46;-0.20;59.10
9544;DHT22;30418;51.45933468;7.33152330;2022-12-18T02:42:18;-0.20;59.10
9544;DHT22;30418;51.45933468;7.33152330;2022-12-18T02:44:49;-0.20;59.70
9544;DHT22;30418;51.45933468;7.33152330;2022-12-18T02:47:24;-0.20;59.10
9544;DHT22;30418;51.45933468;7.33152330;2022-12-18T02:50:04;-0.20;59.10
9544;DHT22;30418;51.45933468;7.33152330;2022-12-18T02:52:44;-0.20;59.10
9544;DHT22;30418;51.45933468;7.33152330;2022-12-18T02:55:25;-0.10;59.20
9544;DHT22;30418;51.45933468;7.33152330;2022-12-18T02:58:11;-0.10;59.20
9544;DHT22;30418;51.45933468;7.33152330;2022-12-18T03:00:50;-0.10;59.20
9544;DHT22;30418;51.45933468;7.33152330;2022-12-18T03:03:25;-0.10;59.20
9544;DHT22;30418;51.45933468;7.33152330;2022-12-18T03:06:01;-0.10;59.20
9544;DHT22;30418;51.45933468;7.33152330;2022-12-18T03:08:38;-0.10;59.20
9544;DHT22;30418;51.45933468;7.33152330;2022-12-18T03:11:10;-0.10;59.20
9544;DHT22;30418;51.45933468;7.33152330;2022-12-18T03:13:45;0.00;59.20
9544;DHT22;30418;51.45933468;7.33152330;2022-12-18T03:16:17;-0.10;59.20
9544;DHT22;30418;51.45933468;7.33152330;2022-12-18T03:18:52;0.00;59.20
9544;DHT22;30418;51.45933468;7.33152330;2022-12-18T03:21:27;0.00;59.20
9544;DHT22;30418;51.45933468;7.33152330;2022-12-18T03:23:58;0.00;59.20
9544;DHT22;30418;51.45933468;7.33152330;2022-12-18T03:26:29;0.00;59.20
9544;DHT22;30418;51.45933468;7.33152330;2022-12-18T03:29:07;0.00;59.20
9544;DHT22;30418;51.45933468;7.33152330;2022-12-18T03:31:40;0.00;59.20
9544;DHT22;30418;51.45933468;7.33152330;2022-12-18T03:34:14;0.00;59.20
9544;DHT22;30418;51.45933468;7.33152330;2022-12-18T03:36:47;0.00;59.10
9544;DHT22;30418;51.45933468;7.33152330;2022-12-18T03:39:15;0.00;59.10
9544;DHT22;30418;51.45933468;7.33152330;2022-12-18T03:41:58;0.00;59.10
9544;DHT22;30418;51.45933468;7.33152330;2022-12-18T03:44:41;0.00;59.20
9544;DHT22;30418;51.45933468;7.33152330;2022-12-18T03:47:15;0.00;59.20
9544;DHT22;30418;51.45933468;7.33152330;2022-12-18T03:49:50;0.00;59.10
9544;DHT22;30418;51.45933468;7.33152330;2022-12-18T03:52:26;0.00;59.10
9544;DHT22;30418;51.45933468;7.33152330;2022-12-18T03:54:58;0.00;59.10
9544;DHT22;30418;51.45933468;7.33152330;2022-12-18T03:57:29;0.00;59.10
9544;DHT22;30418;51.45933468;7.33152330;2022-12-18T04:00:07;0.00;59.10
9544;DHT22;30418;51.45933468;7.33152330;2022-12-18T04:02:53;0.00;59.10
9544;DHT22;30418;51.45933468;7.33152330;2022-12-18T04:05:33;0.00;59.10
9544;DHT22;30418;51.45933468;7.33152330;2022-12-18T04:08:02;0.00;59.10
9544;DHT22;30418;51.45933468;7.33152330;2022-12-18T04:10:35;0.00;59.00
9544;DHT22;30418;51.45933468;7.33152330;2022-12-18T04:13:04;0.00;59.10
9544;DHT22;30418;51.45933468;7.33152330;2022-12-18T04:15:36;0.00;59.00
9544;DHT22;30418;51.45933468;7.33152330;2022-12-18T04:18:09;0.10;59.10
9544;DHT22;30418;51.45933468;7.33152330;2022-12-18T04:20:41;0.00;59.00
9544;DHT22;30418;51.45933468;7.33152330;2022-12-18T04:23:11;0.00;59.00
9544;DHT22;30418;51.45933468;7.33152330;2022-12-18T04:25:40;0.10;59.10
9544;DHT22;30418;51.45933468;7.33152330;2022-12-18T04:28:14;0.00;59.00
9544;DHT22;30418;51.45933468;7.33152330;2022-12-18T04:30:44;0.00;59.00
9544;DHT22;30418;51.45933468;7.33152330;2022-12-18T04:33:13;0.00;59.00
9544;DHT22;30418;51.45933468;7.33152330;2022-12-18T04:35:42;0.10;59.10
9544;DHT22;30418;51.45933468;7.33152330;2022-12-18T04:38:11;0.10;59.10
9544;DHT22;30418;51.45933468;7.33152330;2022-12-18T04:40:39;0.10;59.10
9544;DHT22;30418;51.45933468;7.33152330;2022-12-18T04:43:17;0.10;59.10
9544;DHT22;30418;51.45933468;7.33152330;2022-12-18T04:45:47;0.10;59.10
9544;DHT22;30418;51.45933468;7.33152330;2022-12-18T04:48:16;0.10;59.00
9544;DHT22;30418;51.45933468;7.33152330;2022-12-18T04:50:44;0.10;59.00
9544;DHT22;30418;51.45933468;7.33152330;2022-12-18T04:53:13;0.10;59.00
9544;DHT22;30418;51.45933468;7.33152330;2022-12-18T04:55:41;0.10;59.00
9544;DHT22;30418;51.45933468;7.33152330;2022-12-18T04:58:10;0.10;59.00
9544;DHT22;30418;51.45933468;7.33152330;2022-12-18T05:00:38;0.10;59.00
9544;DHT22;30418;51.45933468;7.33152330;2022-12-18T05:03:09;0.10;59.00
9544;DHT22;30418;51.45933468;7.33152330;2022-12-18T05:05:37;0.10;58.90
9544;DHT22;30418;51.45933468;7.33152330;2022-12-18T05:08:05;0.10;58.90
9544;DHT22;30418;51.45933468;7.33152330;2022-12-18T05:10:34;0.10;58.90
9544;DHT22;30418;51.45933468;7.33152330;2022-12-18T05:13:04;0.10;58.90
9544;DHT22;30418;51.45933468;7.33152330;2022-12-18T05:15:33;0.10;58.90
9544;DHT22;30418;51.45933468;7.33152330;2022-12-18T05:18:03;0.10;58.90
9544;DHT22;30418;51.45933468;7.33152330;2022-12-18T05:20:33;0.10;58.90
9544;DHT22;30418;51.45933468;7.33152330;2022-12-18T05:23:02;0.10;58.80
9544;DHT22;30418;51.45933468;7.33152330;2022-12-18T05:25:30;0.10;58.80
9544;DHT22;30418;51.45933468;7.33152330;2022-12-18T05:27:59;0.10;58.80
9544;DHT22;30418;51.45933468;7.33152330;2022-12-18T05:30:27;0.10;58.80
9544;DHT22;30418;51.45933468;7.33152330;2022-12-18T05:32:56;0.10;58.80
9544;DHT22;30418;51.45933468;7.33152330;2022-12-18T05:35:25;0.10;58.80
9544;DHT22;30418;51.45933468;7.33152330;2022-12-18T05:37:55;0.10;58.70
9544;DHT22;30418;51.45933468;7.33152330;2022-12-18T05:40:23;0.10;58.60
9544;DHT22;30418;51.45933468;7.33152330;2022-12-18T05:42:53;0.10;58.70
9544;DHT22;30418;51.45933468;7.33152330;2022-12-18T05:45:21;0.10;58.60
9544;DHT22;30418;51.45933468;7.33152330;2022-12-18T05:47:50;0.10;58.60
9544;DHT22;30418;51.45933468;7.33152330;2022-12-18T05:50:19;0.10;58.60
9544;DHT22;30418;51.45933468;7.33152330;2022-12-18T05:52:48;0.00;58.50
9544;DHT22;30418;51.45933468;7.33152330;2022-12-18T05:55:18;0.00;58.50
9544;DHT22;30418;51.45933468;7.33152330;2022-12-18T05:57:46;0.00;58.40
9544;DHT22;30418;51.45933468;7.33152330;2022-12-18T06:00:16;0.00;58.50
9544;DHT22;30418;51.45933468;7.33152330;2022-12-18T06:02:46;0.00;58.50
9544;DHT22;30418;51.45933468;7.33152330;2022-12-18T06:05:15;0.00;58.40
9544;DHT22;30418;51.45933468;7.33152330;2022-12-18T06:07:44;0.00;58.40
9544;DHT22;30418;51.45933468;7.33152330;2022-12-18T06:10:12;0.00;58.50
9544;DHT22;30418;51.45933468;7.33152330;2022-12-18T06:12:43;0.00;58.40
9544;DHT22;30418;51.45933468;7.33152330;2022-12-18T06:15:11;0.00;58.40
9544;DHT22;30418;51.45933468;7.33152330;2022-12-18T06:17:40;0.00;58.40
9544;DHT22;30418;51.45933468;7.33152330;2022-12-18T06:20:09;0.00;58.40
9544;DHT22;30418;51.45933468;7.33152330;2022-12-18T06:22:37;0.00;59.00
9544;DHT22;30418;51.45933468;7.33152330;2022-12-18T06:25:07;0.00;58.40
9544;DHT22;30418;51.45933468;7.33152330;2022-12-18T06:27:36;0.00;58.40
9544;DHT22;30418;51.45933468;7.33152330;2022-12-18T06:30:07;-0.10;58.30
9544;DHT22;30418;51.45933468;7.33152330;2022-12-18T06:32:37;-0.10;58.30
9544;DHT22;30418;51.45933468;7.33152330;2022-12-18T06:35:06;-0.10;58.30
9544;DHT22;30418;51.45933468;7.33152330;2022-12-18T06:37:35;-0.10;58.30
9544;DHT22;30418;51.45933468;7.33152330;2022-12-18T06:40:05;-0.10;58.30
9544;DHT22;30418;51.45933468;7.33152330;2022-12-18T06:42:34;-0.10;58.30
9544;DHT22;30418;51.45933468;7.33152330;2022-12-18T06:45:03;-0.10;58.30
9544;DHT22;30418;51.45933468;7.33152330;2022-12-18T06:47:34;-0.10;58.30
9544;DHT22;30418;51.45933468;7.33152330;2022-12-18T06:50:03;-0.10;58.30
9544;DHT22;30418;51.45933468;7.33152330;2022-12-18T06:52:32;-0.10;58.30
9544;DHT22;30418;51.45933468;7.33152330;2022-12-18T06:55:02;-0.10;58.30
9544;DHT22;30418;51.45933468;7.33152330;2022-12-18T06:57:31;-0.10;58.30
9544;DHT22;30418;51.45933468;7.33152330;2022-12-18T07:00:00;-0.10;58.20
9544;DHT22;30418;51.45933468;7.33152330;2022-12-18T07:02:30;-0.10;58.30
9544;DHT22;30418;51.45933468;7.33152330;2022-12-18T07:05:00;-0.10;58.30
9544;DHT22;30418;51.45933468;7.33152330;2022-12-18T07:07:36;-0.10;58.30
9544;DHT22;30418;51.45933468;7.33152330;2022-12-18T07:10:05;-0.10;58.30
9544;DHT22;30418;51.45933468;7.33152330;2022-12-18T07:12:34;-0.10;58.20
9544;DHT22;30418;51.45933468;7.33152330;2022-12-18T07:15:04;-0.10;58.20
9544;DHT22;30418;51.45933468;7.33152330;2022-12-18T07:17:33;-0.10;58.20
9544;DHT22;30418;51.45933468;7.33152330;2022-12-18T07:20:05;-0.20;58.10
9544;DHT22;30418;51.45933468;7.33152330;2022-12-18T07:22:34;-0.10;58.10
9544;DHT22;30418;51.45933468;7.33152330;2022-12-18T07:25:03;-0.20;58.10
9544;DHT22;30418;51.45933468;7.33152330;2022-12-18T07:27:32;-0.10;58.20
9544;DHT22;30418;51.45933468;7.33152330;2022-12-18T07:30:00;-0.10;58.10
9544;DHT22;30418;51.45933468;7.33152330;2022-12-18T07:32:30;-0.10;58.10
9544;DHT22;30418;51.45933468;7.33152330;2022-12-18T07:34:58;-0.10;58.10
9544;DHT22;30418;51.45933468;7.33152330;2022-12-18T07:37:28;-0.10;58.10
9544;DHT22;30418;51.45933468;7.33152330;2022-12-18T07:39:57;-0.20;58.00
9544;DHT22;30418;51.45933468;7.33152330;2022-12-18T07:42:25;-0.20;58.00
9544;DHT22;30418;51.45933468;7.33152330;2022-12-18T07:45:01;-0.20;58.00
9544;DHT22;30418;51.45933468;7.33152330;2022-12-18T07:47:30;-0.10;58.10
9544;DHT22;30418;51.45933468;7.33152330;2022-12-18T07:50:02;-0.10;58.10
9544;DHT22;30418;51.45933468;7.33152330;2022-12-18T07:52:33;-0.10;58.10
9544;DHT22;30418;51.45933468;7.33152330;2022-12-18T07:55:02;-0.20;57.90
9544;DHT22;30418;51.45933468;7.33152330;2022-12-18T07:57:33;-0.10;58.70
9544;DHT22;30418;51.45933468;7.33152330;2022-12-18T08:00:22;-0.10;58.10
9544;DHT22;30418;51.45933468;7.33152330;2022-12-18T08:02:51;-0.10;58.10
9544;DHT22;30418;51.45933468;7.33152330;2022-12-18T08:05:20;0.00;58.10
9544;DHT22;30418;51.45933468;7.33152330;2022-12-18T08:07:50;0.00;58.10
9544;DHT22;30418;51.45933468;7.33152330;2022-12-18T08:10:20;0.00;58.10
9544;DHT22;30418;51.45933468;7.33152330;2022-12-18T08:12:50;0.00;58.10
9544;DHT22;30418;51.45933468;7.33152330;2022-12-18T08:15:18;0.10;58.10
9544;DHT22;30418;51.45933468;7.33152330;2022-12-18T08:17:47;0.10;58.10
9544;DHT22;30418;51.45933468;7.33152330;2022-12-18T08:20:15;0.20;58.20
9544;DHT22;30418;51.45933468;7.33152330;2022-12-18T08:22:45;0.20;58.10
9544;DHT22;30418;51.45933468;7.33152330;2022-12-18T08:25:15;0.20;58.10
9544;DHT22;30418;51.45933468;7.33152330;2022-12-18T08:27:44;0.30;58.10
9544;DHT22;30418;51.45933468;7.33152330;2022-12-18T08:30:13;0.30;58.10
9544;DHT22;30418;51.45933468;7.33152330;2022-12-18T08:32:41;0.30;58.00
9544;DHT22;30418;51.45933468;7.33152330;2022-12-18T08:35:10;0.40;58.10
9544;DHT22;30418;51.45933468;7.33152330;2022-12-18T08:37:44;0.40;58.10
9544;DHT22;30418;51.45933468;7.33152330;2022-12-18T08:40:13;0.40;58.00
9544;DHT22;30418;51.45933468;7.33152330;2022-12-18T08:42:43;0.50;58.10
9544;DHT22;30418;51.45933468;7.33152330;2022-12-18T08:45:29;0.50;58.10
9544;DHT22;30418;51.45933468;7.33152330;2022-12-18T08:47:57;0.60;58.10
9544;DHT22;30418;51.45933468;7.33152330;2022-12-18T08:50:29;0.60;58.00
9544;DHT22;30418;51.45933468;7.33152330;2022-12-18T08:52:58;0.60;57.90
9544;DHT22;30418;51.45933468;7.33152330;2022-12-18T08:55:28;0.60;57.90
9544;DHT22;30418;51.45933468;7.33152330;2022-12-18T08:57:56;0.70;57.90
9544;DHT22;30418;51.45933468;7.33152330;2022-12-18T09:00:25;0.70;57.90
9544;DHT22;30418;51.45933468;7.33152330;2022-12-18T09:02:53;0.70;57.90
9544;DHT22;30418;51.45933468;7.33152330;2022-12-18T09:05:22;0.80;57.90
9544;DHT22;30418;51.45933468;7.33152330;2022-12-18T09:07:51;0.80;57.90
9544;DHT22;30418;51.45933468;7.33152330;2022-12-18T09:10:19;0.80;57.90
9544;DHT22;30418;51.45933468;7.33152330;2022-12-18T09:12:51;0.80;57.90
9544;DHT22;30418;51.45933468;7.33152330;2022-12-18T09:15:19;0.80;57.90
9544;DHT22;30418;51.45933468;7.33152330;2022-12-18T09:17:48;0.80;57.90
9544;DHT22;30418;51.45933468;7.33152330;2022-12-18T09:20:16;0.80;57.90
9544;DHT22;30418;51.45933468;7.33152330;2022-12-18T09:22:45;0.80;57.90
9544;DHT22;30418;51.45933468;7.33152330;2022-12-18T09:25:13;0.80;58.00
9544;DHT22;30418;51.45933468;7.33152330;2022-12-18T09:27:42;0.90;58.00
9544;DHT22;30418;51.45933468;7.33152330;2022-12-18T09:30:13;0.90;58.00
9544;DHT22;30418;51.45933468;7.33152330;2022-12-18T09:32:41;1.00;58.10
9544;DHT22;30418;51.45933468;7.33152330;2022-12-18T09:35:10;1.00;58.00
9544;DHT22;30418;51.45933468;7.33152330;2022-12-18T09:37:38;1.10;58.10
9544;DHT22;30418;51.45933468;7.33152330;2022-12-18T09:40:13;1.10;58.00
9544;DHT22;30418;51.45933468;7.33152330;2022-12-18T09:42:46;1.20;58.00
9544;DHT22;30418;51.45933468;7.33152330;2022-12-18T09:45:19;1.20;58.00
9544;DHT22;30418;51.45933468;7.33152330;2022-12-18T09:47:48;1.20;58.00
9544;DHT22;30418;51.45933468;7.33152330;2022-12-18T09:50:24;1.30;58.00
9544;DHT22;30418;51.45933468;7.33152330;2022-12-18T09:52:57;1.30;58.00
9544;DHT22;30418;51.45933468;7.33152330;2022-12-18T09:55:32;1.30;58.00
9544;DHT22;30418;51.45933468;7.33152330;2022-12-18T09:58:07;1.40;58.60
9544;DHT22;30418;51.45933468;7.33152330;2022-12-18T10:00:43;1.50;57.90
9544;DHT22;30418;51.45933468;7.33152330;2022-12-18T10:03:13;1.50;57.80
9544;DHT22;30418;51.45933468;7.33152330;2022-12-18T10:05:49;1.50;57.90
9544;DHT22;30418;51.45933468;7.33152330;2022-12-18T10:08:32;1.60;57.90
9544;DHT22;30418;51.45933468;7.33152330;2022-12-18T10:11:20;1.60;57.90
9544;DHT22;30418;51.45933468;7.33152330;2022-12-18T10:13:57;1.70;57.80
9544;DHT22;30418;51.45933468;7.33152330;2022-12-18T10:16:36;1.70;57.80
9544;DHT22;30418;51.45933468;7.33152330;2022-12-18T10:19:21;1.70;57.70
9544;DHT22;30418;51.45933468;7.33152330;2022-12-18T10:21:59;1.80;57.80
9544;DHT22;30418;51.45933468;7.33152330;2022-12-18T10:24:38;1.90;57.80
9544;DHT22;30418;51.45933468;7.33152330;2022-12-18T10:27:14;1.90;57.80
9544;DHT22;30418;51.45933468;7.33152330;2022-12-18T10:29:44;2.00;57.80
9544;DHT22;30418;51.45933468;7.33152330;2022-12-18T10:32:17;2.00;57.60
9544;DHT22;30418;51.45933468;7.33152330;2022-12-18T10:34:47;2.10;57.40
9544;DHT22;30418;51.45933468;7.33152330;2022-12-18T10:37:25;2.10;57.40
9544;DHT22;30418;51.45933468;7.33152330;2022-12-18T10:40:08;2.10;57.30
9544;DHT22;30418;51.45933468;7.33152330;2022-12-18T10:43:03;2.20;57.30
9544;DHT22;30418;51.45933468;7.33152330;2022-12-18T10:45:32;2.20;57.30
9544;DHT22;30418;51.45933468;7.33152330;2022-12-18T10:48:03;2.30;57.50
9544;DHT22;30418;51.45933468;7.33152330;2022-12-18T10:50:35;2.30;57.40
9544;DHT22;30418;51.45933468;7.33152330;2022-12-18T10:53:27;2.30;57.40
9544;DHT22;30418;51.45933468;7.33152330;2022-12-18T10:56:00;2.40;57.40
9544;DHT22;30418;51.45933468;7.33152330;2022-12-18T10:58:33;2.40;57.30
9544;DHT22;30418;51.45933468;7.33152330;2022-12-18T11:01:13;2.40;57.30
9544;DHT22;30418;51.45933468;7.33152330;2022-12-18T11:03:46;2.50;57.20
9544;DHT22;30418;51.45933468;7.33152330;2022-12-18T11:06:29;2.50;57.20
9544;DHT22;30418;51.45933468;7.33152330;2022-12-18T11:09:00;2.50;57.20
9544;DHT22;30418;51.45933468;7.33152330;2022-12-18T11:11:39;2.50;57.10
9544;DHT22;30418;51.45933468;7.33152330;2022-12-18T11:14:16;2.60;57.30
9544;DHT22;30418;51.45933468;7.33152330;2022-12-18T11:16:49;2.60;57.20
9544;DHT22;30418;51.45933468;7.33152330;2022-12-18T11:19:41;2.70;57.30
9544;DHT22;30418;51.45933468;7.33152330;2022-12-18T11:22:19;2.70;57.30
9544;DHT22;30418;51.45933468;7.33152330;2022-12-18T11:24:55;2.70;57.10
9544;DHT22;30418;51.45933468;7.33152330;2022-12-18T11:27:48;2.70;56.70
9544;DHT22;30418;51.45933468;7.33152330;2022-12-18T11:30:25;2.80;56.80
9544;DHT22;30418;51.45933468;7.33152330;2022-12-18T11:33:03;2.80;56.90
9544;DHT22;30418;51.45933468;7.33152330;2022-12-18T11:35:42;2.90;56.90
9544;DHT22;30418;51.45933468;7.33152330;2022-12-18T11:38:20;2.90;56.90
9544;DHT22;30418;51.45933468;7.33152330;2022-12-18T11:40:55;2.90;56.90
9544;DHT22;30418;51.45933468;7.33152330;2022-12-18T11:43:28;2.90;56.90
9544;DHT22;30418;51.45933468;7.33152330;2022-12-18T11:46:02;3.00;57.00
9544;DHT22;30418;51.45933468;7.33152330;2022-12-18T11:48:36;3.00;57.00
9544;DHT22;30418;51.45933468;7.33152330;2022-12-18T11:51:13;3.00;57.00
9544;DHT22;30418;51.45933468;7.33152330;2022-12-18T11:53:43;3.00;57.00
9544;DHT22;30418;51.45933468;7.33152330;2022-12-18T11:56:28;3.10;57.00
9544;DHT22;30418;51.45933468;7.33152330;2022-12-18T11:59:06;3.10;56.70
9544;DHT22;30418;51.45933468;7.33152330;2022-12-18T12:01:48;3.10;56.70
9544;DHT22;30418;51.45933468;7.33152330;2022-12-18T12:04:40;3.10;56.80
9544;DHT22;30418;51.45933468;7.33152330;2022-12-18T12:07:37;3.10;56.60
9544;DHT22;30418;51.45933468;7.33152330;2022-12-18T12:10:26;3.20;56.60
9544;DHT22;30418;51.45933468;7.33152330;2022-12-18T12:13:19;3.20;56.60
9544;DHT22;30418;51.45933468;7.33152330;2022-12-18T12:16:01;3.20;56.60
9544;DHT22;30418;51.45933468;7.33152330;2022-12-18T12:18:46;3.20;56.60
9544;DHT22;30418;51.45933468;7.33152330;2022-12-18T12:21:25;3.20;56.50
9544;DHT22;30418;51.45933468;7.33152330;2022-12-18T12:24:09;3.30;56.60
9544;DHT22;30418;51.45933468;7.33152330;2022-12-18T12:26:53;3.30;56.60
9544;DHT22;30418;51.45933468;7.33152330;2022-12-18T12:29:36;3.30;56.60
9544;DHT22;30418;51.45933468;7.33152330;2022-12-18T12:32:25;3.40;56.60
9544;DHT22;30418;51.45933468;7.33152330;2022-12-18T12:35:10;3.30;56.50
9544;DHT22;30418;51.45933468;7.33152330;2022-12-18T12:37:58;3.40;56.50
9544;DHT22;30418;51.45933468;7.33152330;2022-12-18T12:40:35;3.40;56.30
9544;DHT22;30418;51.45933468;7.33152330;2022-12-18T12:43:34;3.40;56.30
9544;DHT22;30418;51.45933468;7.33152330;2022-12-18T12:46:17;3.40;56.10
9544;DHT22;30418;51.45933468;7.33152330;2022-12-18T12:48:50;3.40;56.20
9544;DHT22;30418;51.45933468;7.33152330;2022-12-18T12:51:22;3.40;56.20
9544;DHT22;30418;51.45933468;7.33152330;2022-12-18T12:53:54;3.40;56.20
9544;DHT22;30418;51.45933468;7.33152330;2022-12-18T12:56:32;3.40;56.10
9544;DHT22;30418;51.45933468;7.33152330;2022-12-18T12:59:12;3.50;56.10
9544;DHT22;30418;51.45933468;7.33152330;2022-12-18T13:01:51;3.50;56.00
9544;DHT22;30418;51.45933468;7.33152330;2022-12-18T13:04:29;3.50;56.00
9544;DHT22;30418;51.45933468;7.33152330;2022-12-18T13:07:05;3.50;56.10
9544;DHT22;30418;51.45933468;7.33152330;2022-12-18T13:10:20;3.50;56.00
9544;DHT22;30418;51.45933468;7.33152330;2022-12-18T13:12:55;3.50;55.90
9544;DHT22;30418;51.45933468;7.33152330;2022-12-18T13:15:28;3.50;56.20
9544;DHT22;30418;51.45933468;7.33152330;2022-12-18T13:18:10;3.50;56.20
9544;DHT22;30418;51.45933468;7.33152330;2022-12-18T13:20:43;3.50;56.00
9544;DHT22;30418;51.45933468;7.33152330;2022-12-18T13:23:33;3.50;55.90
9544;DHT22;30418;51.45933468;7.33152330;2022-12-18T13:26:35;3.50;55.60
9544;DHT22;30418;51.45933468;7.33152330;2022-12-18T13:29:04;3.60;55.60
9544;DHT22;30418;51.45933468;7.33152330;2022-12-18T13:34:30;3.60;55.70
9544;DHT22;30418;51.45933468;7.33152330;2022-12-18T13:43:40;3.60;55.80
9544;DHT22;30418;51.45933468;7.33152330;2022-12-18T13:46:20;3.50;56.10
9544;DHT22;30418;51.45933468;7.33152330;2022-12-18T13:48:56;3.60;55.90
9544;DHT22;30418;51.45933468;7.33152330;2022-12-18T13:51:28;3.50;55.90
9544;DHT22;30418;51.45933468;7.33152330;2022-12-18T13:54:00;3.50;55.90
9544;DHT22;30418;51.45933468;7.33152330;2022-12-18T13:56:32;3.50;55.80
9544;DHT22;30418;51.45933468;7.33152330;2022-12-18T13:59:12;3.50;55.80
9544;DHT22;30418;51.45933468;7.33152330;2022-12-18T14:01:50;3.60;55.90
9544;DHT22;30418;51.45933468;7.33152330;2022-12-18T14:04:24;3.50;55.80
9544;DHT22;30418;51.45933468;7.33152330;2022-12-18T14:06:57;3.50;55.90
9544;DHT22;30418;51.45933468;7.33152330;2022-12-18T14:09:30;3.50;55.80
9544;DHT22;30418;51.45933468;7.33152330;2022-12-18T14:12:00;3.50;55.80
9544;DHT22;30418;51.45933468;7.33152330;2022-12-18T14:14:50;3.50;55.80
9544;DHT22;30418;51.45933468;7.33152330;2022-12-18T14:17:22;3.50;55.70
9544;DHT22;30418;51.45933468;7.33152330;2022-12-18T14:19:52;3.50;55.80
9544;DHT22;30418;51.45933468;7.33152330;2022-12-18T14:22:22;3.50;55.70
9544;DHT22;30418;51.45933468;7.33152330;2022-12-18T14:25:15;3.50;55.60